sensor_id;sensor_type;location;lat;lon;timestamp;temperature;humidity
27413;DHT22;14871;52.702;5.230;2023-04-24T00:00:19;15.20;99.90
27413;DHT22;14871;52.702;5.230;2023-04-24T00:02:46;15.10;99.90
27413;DHT22;14871;52.702;5.230;2023-04-24T00:05:16;15.20;99.90
27413;DHT22;14871;52.702;5.230;2023-04-24T00:07:44;15.10;99.90
27413;DHT22;14871;52.702;5.230;2023-04-24T00:10:10;15.00;99.90
27413;DHT22;14871;52.702;5.230;2023-04-24T00:12:36;15.00;99.90
27413;DHT22;14871;52.702;5.230;2023-04-24T00:15:03;15.00;99.90
27413;DHT22;14871;52.702;5.230;2023-04-24T00:17:29;15.00;99.90
27413;DHT22;14871;52.702;5.230;2023-04-24T00:19:56;14.90;99.90
27413;DHT22;14871;52.702;5.230;2023-04-24T00:22:27;14.90;99.90
27413;DHT22;14871;52.702;5.230;2023-04-24T00:24:54;14.90;99.90
27413;DHT22;14871;52.702;5.230;2023-04-24T00:27:20;14.70;99.90
27413;DHT22;14871;52.702;5.230;2023-04-24T00:29:45;14.60;99.90
27413;DHT22;14871;52.702;5.230;2023-04-24T00:32:11;14.80;99.90
27413;DHT22;14871;52.702;5.230;2023-04-24T00:34:37;14.50;99.90
27413;DHT22;14871;52.702;5.230;2023-04-24T00:37:03;14.50;99.90
27413;DHT22;14871;52.702;5.230;2023-04-24T00:39:29;14.50;99.90
27413;DHT22;14871;52.702;5.230;2023-04-24T00:41:54;14.50;99.90
27413;DHT22;14871;52.702;5.230;2023-04-24T00:44:20;14.50;99.90
27413;DHT22;14871;52.702;5.230;2023-04-24T00:46:47;14.40;99.90
27413;DHT22;14871;52.702;5.230;2023-04-24T00:49:18;14.40;99.90
27413;DHT22;14871;52.702;5.230;2023-04-24T00:51:44;14.20;99.90
27413;DHT22;14871;52.702;5.230;2023-04-24T00:54:11;14.20;99.90
27413;DHT22;14871;52.702;5.230;2023-04-24T00:56:37;14.20;99.90
27413;DHT22;14871;52.702;5.230;2023-04-24T00:59:03;14.20;99.90
27413;DHT22;14871;52.702;5.230;2023-04-24T01:01:30;14.20;99.90
27413;DHT22;14871;52.702;5.230;2023-04-24T01:03:56;14.30;99.90
27413;DHT22;14871;52.702;5.230;2023-04-24T01:06:23;14.20;99.90
27413;DHT22;14871;52.702;5.230;2023-04-24T01:08:52;14.30;99.90
27413;DHT22;14871;52.702;5.230;2023-04-24T01:11:19;14.30;99.90
27413;DHT22;14871;52.702;5.230;2023-04-24T01:13:46;14.30;99.90
27413;DHT22;14871;52.702;5.230;2023-04-24T01:16:13;14.20;99.90
27413;DHT22;14871;52.702;5.230;2023-04-24T01:18:39;14.40;99.90
27413;DHT22;14871;52.702;5.230;2023-04-24T01:21:05;14.30;99.90
27413;DHT22;14871;52.702;5.230;2023-04-24T01:23:32;14.30;99.90
27413;DHT22;14871;52.702;5.230;2023-04-24T01:25:57;14.30;99.90
27413;DHT22;14871;52.702;5.230;2023-04-24T01:28:23;14.40;99.90
27413;DHT22;14871;52.702;5.230;2023-04-24T01:30:49;14.30;99.90
27413;DHT22;14871;52.702;5.230;2023-04-24T01:33:15;14.20;99.90
27413;DHT22;14871;52.702;5.230;2023-04-24T01:35:41;14.20;99.90
27413;DHT22;14871;52.702;5.230;2023-04-24T01:38:07;14.20;99.90
27413;DHT22;14871;52.702;5.230;2023-04-24T01:40:33;14.20;99.90
27413;DHT22;14871;52.702;5.230;2023-04-24T01:43:00;14.20;99.90
27413;DHT22;14871;52.702;5.230;2023-04-24T01:45:25;14.20;99.90
27413;DHT22;14871;52.702;5.230;2023-04-24T01:47:51;14.20;99.90
27413;DHT22;14871;52.702;5.230;2023-04-24T01:50:18;14.00;99.90
27413;DHT22;14871;52.702;5.230;2023-04-24T01:52:44;13.90;99.90
27413;DHT22;14871;52.702;5.230;2023-04-24T01:55:10;13.80;99.90
27413;DHT22;14871;52.702;5.230;2023-04-24T01:57:36;13.80;99.90
27413;DHT22;14871;52.702;5.230;2023-04-24T02:00:03;13.90;99.90
27413;DHT22;14871;52.702;5.230;2023-04-24T02:02:32;13.90;99.90
27413;DHT22;14871;52.702;5.230;2023-04-24T02:04:59;13.90;99.90
27413;DHT22;14871;52.702;5.230;2023-04-24T02:07:24;13.90;99.90
27413;DHT22;14871;52.702;5.230;2023-04-24T02:09:50;13.90;99.90
27413;DHT22;14871;52.702;5.230;2023-04-24T02:12:16;13.80;99.90
27413;DHT22;14871;52.702;5.230;2023-04-24T02:14:43;13.70;99.90
27413;DHT22;14871;52.702;5.230;2023-04-24T02:17:09;13.70;99.90
27413;DHT22;14871;52.702;5.230;2023-04-24T02:19:35;13.60;99.90
27413;DHT22;14871;52.702;5.230;2023-04-24T02:22:01;13.60;99.90
27413;DHT22;14871;52.702;5.230;2023-04-24T02:24:26;13.70;99.90
27413;DHT22;14871;52.702;5.230;2023-04-24T02:26:52;13.70;99.90
27413;DHT22;14871;52.702;5.230;2023-04-24T02:29:17;13.70;99.90
27413;DHT22;14871;52.702;5.230;2023-04-24T02:31:43;13.70;99.90
27413;DHT22;14871;52.702;5.230;2023-04-24T02:34:09;13.70;99.90
27413;DHT22;14871;52.702;5.230;2023-04-24T02:36:35;13.70;99.90
27413;DHT22;14871;52.702;5.230;2023-04-24T02:39:01;13.70;99.90
27413;DHT22;14871;52.702;5.230;2023-04-24T02:41:27;13.70;99.90
27413;DHT22;14871;52.702;5.230;2023-04-24T02:43:57;13.60;99.90
27413;DHT22;14871;52.702;5.230;2023-04-24T02:46:23;13.60;99.90
27413;DHT22;14871;52.702;5.230;2023-04-24T02:48:49;13.60;99.90
27413;DHT22;14871;52.702;5.230;2023-04-24T02:51:14;13.50;99.90
27413;DHT22;14871;52.702;5.230;2023-04-24T02:53:40;13.50;99.90
27413;DHT22;14871;52.702;5.230;2023-04-24T02:56:06;13.50;99.90
27413;DHT22;14871;52.702;5.230;2023-04-24T02:58:32;13.40;99.90
27413;DHT22;14871;52.702;5.230;2023-04-24T03:00:57;13.40;99.90
27413;DHT22;14871;52.702;5.230;2023-04-24T03:03:23;13.50;99.90
27413;DHT22;14871;52.702;5.230;2023-04-24T03:05:49;13.60;99.90
27413;DHT22;14871;52.702;5.230;2023-04-24T03:08:16;13.30;99.90
27413;DHT22;14871;52.702;5.230;2023-04-24T03:10:41;13.30;99.90
27413;DHT22;14871;52.702;5.230;2023-04-24T03:13:07;13.20;99.90
27413;DHT22;14871;52.702;5.230;2023-04-24T03:15:33;13.10;99.90
27413;DHT22;14871;52.702;5.230;2023-04-24T03:17:59;13.20;99.90
27413;DHT22;14871;52.702;5.230;2023-04-24T03:20:26;13.10;99.90
27413;DHT22;14871;52.702;5.230;2023-04-24T03:22:51;13.10;99.90
27413;DHT22;14871;52.702;5.230;2023-04-24T03:25:17;13.10;99.90
27413;DHT22;14871;52.702;5.230;2023-04-24T03:27:43;13.00;99.90
27413;DHT22;14871;52.702;5.230;2023-04-24T03:30:09;13.10;99.90
27413;DHT22;14871;52.702;5.230;2023-04-24T03:32:35;13.10;99.90
27413;DHT22;14871;52.702;5.230;2023-04-24T03:35:01;13.00;99.90
27413;DHT22;14871;52.702;5.230;2023-04-24T03:37:27;13.20;99.90
27413;DHT22;14871;52.702;5.230;2023-04-24T03:39:52;13.10;99.90
27413;DHT22;14871;52.702;5.230;2023-04-24T03:42:18;13.10;99.90
27413;DHT22;14871;52.702;5.230;2023-04-24T03:44:44;13.00;99.90
27413;DHT22;14871;52.702;5.230;2023-04-24T03:47:10;13.00;99.90
27413;DHT22;14871;52.702;5.230;2023-04-24T03:49:35;13.00;99.90
27413;DHT22;14871;52.702;5.230;2023-04-24T03:52:01;13.00;99.90
27413;DHT22;14871;52.702;5.230;2023-04-24T03:54:27;13.00;99.90
27413;DHT22;14871;52.702;5.230;2023-04-24T03:56:52;12.90;99.90
27413;DHT22;14871;52.702;5.230;2023-04-24T03:59:18;13.00;99.90
27413;DHT22;14871;52.702;5.230;2023-04-24T04:01:44;13.00;99.90
27413;DHT22;14871;52.702;5.230;2023-04-24T04:04:10;12.80;99.90
27413;DHT22;14871;52.702;5.230;2023-04-24T04:06:36;12.90;99.90
27413;DHT22;14871;52.702;5.230;2023-04-24T04:09:02;12.90;99.90
27413;DHT22;14871;52.702;5.230;2023-04-24T04:11:28;12.80;99.90
27413;DHT22;14871;52.702;5.230;2023-04-24T04:13:54;12.70;99.90
27413;DHT22;14871;52.702;5.230;2023-04-24T04:16:20;12.70;99.90
27413;DHT22;14871;52.702;5.230;2023-04-24T04:18:46;12.90;99.90
27413;DHT22;14871;52.702;5.230;2023-04-24T04:21:12;12.90;99.90
27413;DHT22;14871;52.702;5.230;2023-04-24T04:23:37;13.00;99.90
27413;DHT22;14871;52.702;5.230;2023-04-24T04:26:04;13.10;99.90
27413;DHT22;14871;52.702;5.230;2023-04-24T04:28:30;13.10;99.90
27413;DHT22;14871;52.702;5.230;2023-04-24T04:30:57;13.20;99.90
27413;DHT22;14871;52.702;5.230;2023-04-24T04:33:23;13.20;99.90
27413;DHT22;14871;52.702;5.230;2023-04-24T04:35:50;13.20;99.90
27413;DHT22;14871;52.702;5.230;2023-04-24T04:38:18;13.10;99.90
27413;DHT22;14871;52.702;5.230;2023-04-24T04:40:45;13.10;99.90
27413;DHT22;14871;52.702;5.230;2023-04-24T04:43:11;13.20;99.90
27413;DHT22;14871;52.702;5.230;2023-04-24T04:45:38;13.20;99.90
27413;DHT22;14871;52.702;5.230;2023-04-24T04:48:05;13.20;99.90
27413;DHT22;14871;52.702;5.230;2023-04-24T04:50:33;13.30;99.90
27413;DHT22;14871;52.702;5.230;2023-04-24T04:52:59;13.30;99.90
27413;DHT22;14871;52.702;5.230;2023-04-24T04:55:25;13.30;99.90
27413;DHT22;14871;52.702;5.230;2023-04-24T04:57:51;13.30;99.90
27413;DHT22;14871;52.702;5.230;2023-04-24T05:00:17;13.20;99.90
27413;DHT22;14871;52.702;5.230;2023-04-24T05:02:43;13.20;99.90
27413;DHT22;14871;52.702;5.230;2023-04-24T05:05:09;13.30;99.90
27413;DHT22;14871;52.702;5.230;2023-04-24T05:07:35;13.20;99.90
27413;DHT22;14871;52.702;5.230;2023-04-24T05:10:01;13.30;99.90
27413;DHT22;14871;52.702;5.230;2023-04-24T05:12:27;13.40;99.90
27413;DHT22;14871;52.702;5.230;2023-04-24T05:14:53;13.30;99.90
27413;DHT22;14871;52.702;5.230;2023-04-24T05:17:19;13.20;99.90
27413;DHT22;14871;52.702;5.230;2023-04-24T05:19:45;13.30;99.90
27413;DHT22;14871;52.702;5.230;2023-04-24T05:22:11;13.20;99.90
27413;DHT22;14871;52.702;5.230;2023-04-24T05:24:37;13.20;99.90
27413;DHT22;14871;52.702;5.230;2023-04-24T05:27:03;13.20;99.90
27413;DHT22;14871;52.702;5.230;2023-04-24T05:29:32;13.20;99.90
27413;DHT22;14871;52.702;5.230;2023-04-24T05:31:59;13.00;99.90
27413;DHT22;14871;52.702;5.230;2023-04-24T05:34:25;12.90;99.90
27413;DHT22;14871;52.702;5.230;2023-04-24T05:36:52;12.90;99.90
27413;DHT22;14871;52.702;5.230;2023-04-24T05:39:18;12.90;99.90
27413;DHT22;14871;52.702;5.230;2023-04-24T05:41:45;12.90;99.90
27413;DHT22;14871;52.702;5.230;2023-04-24T05:44:10;12.80;99.90
27413;DHT22;14871;52.702;5.230;2023-04-24T05:46:36;12.70;99.90
27413;DHT22;14871;52.702;5.230;2023-04-24T05:49:02;12.80;99.90
27413;DHT22;14871;52.702;5.230;2023-04-24T05:51:28;12.70;99.90
27413;DHT22;14871;52.702;5.230;2023-04-24T05:53:54;12.60;99.90
27413;DHT22;14871;52.702;5.230;2023-04-24T05:56:20;12.40;99.90
27413;DHT22;14871;52.702;5.230;2023-04-24T05:58:46;12.40;99.90
27413;DHT22;14871;52.702;5.230;2023-04-24T06:01:13;12.40;99.90
27413;DHT22;14871;52.702;5.230;2023-04-24T06:03:41;12.40;99.90
27413;DHT22;14871;52.702;5.230;2023-04-24T06:06:07;12.30;99.90
27413;DHT22;14871;52.702;5.230;2023-04-24T06:08:34;12.30;99.90
27413;DHT22;14871;52.702;5.230;2023-04-24T06:10:59;12.30;99.90
27413;DHT22;14871;52.702;5.230;2023-04-24T06:13:25;12.30;99.90
27413;DHT22;14871;52.702;5.230;2023-04-24T06:15:52;12.30;99.90
27413;DHT22;14871;52.702;5.230;2023-04-24T06:18:18;12.30;99.90
27413;DHT22;14871;52.702;5.230;2023-04-24T06:20:46;12.30;99.90
27413;DHT22;14871;52.702;5.230;2023-04-24T06:23:12;12.30;99.90
27413;DHT22;14871;52.702;5.230;2023-04-24T06:25:38;12.30;99.90
27413;DHT22;14871;52.702;5.230;2023-04-24T06:28:04;12.30;99.90
27413;DHT22;14871;52.702;5.230;2023-04-24T06:30:30;12.40;99.90
27413;DHT22;14871;52.702;5.230;2023-04-24T06:32:56;12.30;99.90
27413;DHT22;14871;52.702;5.230;2023-04-24T06:35:22;12.30;99.90
27413;DHT22;14871;52.702;5.230;2023-04-24T06:37:48;12.20;99.90
27413;DHT22;14871;52.702;5.230;2023-04-24T06:40:14;12.40;99.90
27413;DHT22;14871;52.702;5.230;2023-04-24T06:42:40;12.40;99.90
27413;DHT22;14871;52.702;5.230;2023-04-24T06:45:06;12.30;99.90
27413;DHT22;14871;52.702;5.230;2023-04-24T06:47:32;12.30;99.90
27413;DHT22;14871;52.702;5.230;2023-04-24T06:49:58;12.20;99.90
27413;DHT22;14871;52.702;5.230;2023-04-24T06:52:24;12.10;99.90
27413;DHT22;14871;52.702;5.230;2023-04-24T06:54:50;12.10;99.90
27413;DHT22;14871;52.702;5.230;2023-04-24T06:57:16;12.10;99.90
27413;DHT22;14871;52.702;5.230;2023-04-24T06:59:42;12.20;99.90
27413;DHT22;14871;52.702;5.230;2023-04-24T07:02:07;12.00;99.90
27413;DHT22;14871;52.702;5.230;2023-04-24T07:04:33;12.00;99.90
27413;DHT22;14871;52.702;5.230;2023-04-24T07:06:59;12.00;99.90
27413;DHT22;14871;52.702;5.230;2023-04-24T07:09:26;12.10;99.90
27413;DHT22;14871;52.702;5.230;2023-04-24T07:11:52;12.20;99.90
27413;DHT22;14871;52.702;5.230;2023-04-24T07:14:19;12.20;99.90
27413;DHT22;14871;52.702;5.230;2023-04-24T07:16:46;12.20;99.90
27413;DHT22;14871;52.702;5.230;2023-04-24T07:19:13;12.30;99.90
27413;DHT22;14871;52.702;5.230;2023-04-24T07:21:39;12.40;99.90
27413;DHT22;14871;52.702;5.230;2023-04-24T07:24:05;12.20;99.90
27413;DHT22;14871;52.702;5.230;2023-04-24T07:26:34;12.30;99.90
27413;DHT22;14871;52.702;5.230;2023-04-24T07:29:00;12.20;99.90
27413;DHT22;14871;52.702;5.230;2023-04-24T07:31:26;12.30;99.90
27413;DHT22;14871;52.702;5.230;2023-04-24T07:33:51;12.20;99.90
27413;DHT22;14871;52.702;5.230;2023-04-24T07:36:17;12.30;99.90
27413;DHT22;14871;52.702;5.230;2023-04-24T07:38:45;12.30;99.90
27413;DHT22;14871;52.702;5.230;2023-04-24T07:41:12;12.30;99.90
27413;DHT22;14871;52.702;5.230;2023-04-24T07:43:38;12.30;99.90
27413;DHT22;14871;52.702;5.230;2023-04-24T07:46:03;12.40;99.90
27413;DHT22;14871;52.702;5.230;2023-04-24T07:48:29;12.50;99.90
27413;DHT22;14871;52.702;5.230;2023-04-24T07:50:55;12.50;99.90
27413;DHT22;14871;52.702;5.230;2023-04-24T07:53:21;12.50;99.90
27413;DHT22;14871;52.702;5.230;2023-04-24T07:55:46;12.50;99.90
27413;DHT22;14871;52.702;5.230;2023-04-24T07:58:12;12.50;99.90
27413;DHT22;14871;52.702;5.230;2023-04-24T08:00:39;12.50;99.90
27413;DHT22;14871;52.702;5.230;2023-04-24T08:03:05;12.60;99.90
27413;DHT22;14871;52.702;5.230;2023-04-24T08:05:31;12.50;99.90
27413;DHT22;14871;52.702;5.230;2023-04-24T08:07:57;12.50;99.90
27413;DHT22;14871;52.702;5.230;2023-04-24T08:10:23;12.60;99.90
27413;DHT22;14871;52.702;5.230;2023-04-24T08:12:49;12.50;99.90
27413;DHT22;14871;52.702;5.230;2023-04-24T08:15:15;12.50;99.90
27413;DHT22;14871;52.702;5.230;2023-04-24T08:17:40;12.40;99.90
27413;DHT22;14871;52.702;5.230;2023-04-24T08:20:08;12.20;99.90
27413;DHT22;14871;52.702;5.230;2023-04-24T08:22:39;12.10;99.90
27413;DHT22;14871;52.702;5.230;2023-04-24T08:25:06;12.00;99.90
27413;DHT22;14871;52.702;5.230;2023-04-24T08:27:32;12.00;99.90
27413;DHT22;14871;52.702;5.230;2023-04-24T08:29:58;12.10;99.90
27413;DHT22;14871;52.702;5.230;2023-04-24T08:32:26;12.10;99.90
27413;DHT22;14871;52.702;5.230;2023-04-24T08:34:54;12.00;99.90
27413;DHT22;14871;52.702;5.230;2023-04-24T08:37:22;12.10;99.90
27413;DHT22;14871;52.702;5.230;2023-04-24T08:39:48;12.20;99.90
27413;DHT22;14871;52.702;5.230;2023-04-24T08:42:14;12.20;99.90
27413;DHT22;14871;52.702;5.230;2023-04-24T08:44:41;12.20;99.90
27413;DHT22;14871;52.702;5.230;2023-04-24T08:47:07;12.10;99.90
27413;DHT22;14871;52.702;5.230;2023-04-24T08:49:33;12.20;99.90
27413;DHT22;14871;52.702;5.230;2023-04-24T08:52:02;12.20;99.90
27413;DHT22;14871;52.702;5.230;2023-04-24T08:54:28;12.20;99.90
27413;DHT22;14871;52.702;5.230;2023-04-24T08:56:58;12.10;99.90
27413;DHT22;14871;52.702;5.230;2023-04-24T08:59:27;12.20;99.90
27413;DHT22;14871;52.702;5.230;2023-04-24T09:01:53;12.40;99.90
27413;DHT22;14871;52.702;5.230;2023-04-24T09:04:20;12.30;99.90
27413;DHT22;14871;52.702;5.230;2023-04-24T09:06:48;12.20;99.90
27413;DHT22;14871;52.702;5.230;2023-04-24T09:09:16;12.10;99.90
27413;DHT22;14871;52.702;5.230;2023-04-24T09:11:43;12.20;99.90
27413;DHT22;14871;52.702;5.230;2023-04-24T09:14:10;12.20;99.90
27413;DHT22;14871;52.702;5.230;2023-04-24T09:16:36;12.30;99.90
27413;DHT22;14871;52.702;5.230;2023-04-24T09:19:02;12.20;99.90
27413;DHT22;14871;52.702;5.230;2023-04-24T09:21:32;12.20;99.90
27413;DHT22;14871;52.702;5.230;2023-04-24T09:24:00;12.40;99.90
27413;DHT22;14871;52.702;5.230;2023-04-24T09:26:29;12.20;99.90
27413;DHT22;14871;52.702;5.230;2023-04-24T09:28:57;12.10;99.90
27413;DHT22;14871;52.702;5.230;2023-04-24T09:31:23;12.10;99.90
27413;DHT22;14871;52.702;5.230;2023-04-24T09:34:03;12.40;99.90
27413;DHT22;14871;52.702;5.230;2023-04-24T09:36:32;12.40;99.90
27413;DHT22;14871;52.702;5.230;2023-04-24T09:39:03;12.20;99.90
27413;DHT22;14871;52.702;5.230;2023-04-24T09:41:29;12.40;99.90
27413;DHT22;14871;52.702;5.230;2023-04-24T09:43:56;12.30;99.90
27413;DHT22;14871;52.702;5.230;2023-04-24T09:46:30;12.30;99.90
27413;DHT22;14871;52.702;5.230;2023-04-24T09:48:57;12.20;99.90
27413;DHT22;14871;52.702;5.230;2023-04-24T09:51:35;12.40;99.90
27413;DHT22;14871;52.702;5.230;2023-04-24T09:54:03;12.30;99.90
27413;DHT22;14871;52.702;5.230;2023-04-24T09:56:32;12.20;99.90
27413;DHT22;14871;52.702;5.230;2023-04-24T09:59:08;12.30;99.90
27413;DHT22;14871;52.702;5.230;2023-04-24T10:01:34;12.30;99.90
27413;DHT22;14871;52.702;5.230;2023-04-24T10:04:00;12.30;99.90
27413;DHT22;14871;52.702;5.230;2023-04-24T10:06:36;12.30;99.90
27413;DHT22;14871;52.702;5.230;2023-04-24T10:09:02;12.30;99.90
27413;DHT22;14871;52.702;5.230;2023-04-24T10:11:30;12.40;99.90
27413;DHT22;14871;52.702;5.230;2023-04-24T10:13:56;12.40;99.90
27413;DHT22;14871;52.702;5.230;2023-04-24T10:16:23;12.50;99.90
27413;DHT22;14871;52.702;5.230;2023-04-24T10:18:49;12.50;99.90
27413;DHT22;14871;52.702;5.230;2023-04-24T10:21:16;12.40;99.90
27413;DHT22;14871;52.702;5.230;2023-04-24T10:23:42;12.40;99.90
27413;DHT22;14871;52.702;5.230;2023-04-24T10:26:12;12.20;99.90
27413;DHT22;14871;52.702;5.230;2023-04-24T10:28:46;12.10;99.90
27413;DHT22;14871;52.702;5.230;2023-04-24T10:31:13;12.20;99.90
27413;DHT22;14871;52.702;5.230;2023-04-24T10:33:43;12.20;99.90
27413;DHT22;14871;52.702;5.230;2023-04-24T10:36:11;12.50;99.90
27413;DHT22;14871;52.702;5.230;2023-04-24T10:38:38;12.40;99.90
27413;DHT22;14871;52.702;5.230;2023-04-24T10:41:13;12.30;99.90
27413;DHT22;14871;52.702;5.230;2023-04-24T10:43:45;12.20;99.90
27413;DHT22;14871;52.702;5.230;2023-04-24T10:46:19;12.20;99.90
27413;DHT22;14871;52.702;5.230;2023-04-24T10:48:52;12.10;99.90
27413;DHT22;14871;52.702;5.230;2023-04-24T10:51:42;12.20;99.90
27413;DHT22;14871;52.702;5.230;2023-04-24T10:54:28;12.30;99.90
27413;DHT22;14871;52.702;5.230;2023-04-24T10:59:46;12.20;99.90
27413;DHT22;14871;52.702;5.230;2023-04-24T11:02:14;12.30;99.90
27413;DHT22;14871;52.702;5.230;2023-04-24T11:04:44;12.60;99.90
27413;DHT22;14871;52.702;5.230;2023-04-24T11:07:11;12.70;99.90
27413;DHT22;14871;52.702;5.230;2023-04-24T11:09:37;12.70;99.90
27413;DHT22;14871;52.702;5.230;2023-04-24T11:12:07;12.70;99.90
27413;DHT22;14871;52.702;5.230;2023-04-24T11:14:59;12.70;99.90
27413;DHT22;14871;52.702;5.230;2023-04-24T11:17:36;12.60;99.90
27413;DHT22;14871;52.702;5.230;2023-04-24T11:20:10;12.50;99.90
27413;DHT22;14871;52.702;5.230;2023-04-24T11:22:39;12.70;99.90
27413;DHT22;14871;52.702;5.230;2023-04-24T11:25:09;12.70;99.90
27413;DHT22;14871;52.702;5.230;2023-04-24T11:27:42;13.00;99.90
27413;DHT22;14871;52.702;5.230;2023-04-24T11:30:10;13.20;99.90
27413;DHT22;14871;52.702;5.230;2023-04-24T11:32:42;13.30;99.90
27413;DHT22;14871;52.702;5.230;2023-04-24T11:35:19;13.50;99.90
27413;DHT22;14871;52.702;5.230;2023-04-24T11:37:47;13.70;99.90
27413;DHT22;14871;52.702;5.230;2023-04-24T11:40:17;13.80;99.90
27413;DHT22;14871;52.702;5.230;2023-04-24T11:42:54;13.50;99.90
27413;DHT22;14871;52.702;5.230;2023-04-24T11:45:25;13.50;99.90
27413;DHT22;14871;52.702;5.230;2023-04-24T11:47:51;13.60;99.90
27413;DHT22;14871;52.702;5.230;2023-04-24T11:50:18;13.40;99.90
27413;DHT22;14871;52.702;5.230;2023-04-24T11:52:47;12.80;99.90
27413;DHT22;14871;52.702;5.230;2023-04-24T12:00:24;12.50;99.90
27413;DHT22;14871;52.702;5.230;2023-04-24T12:02:51;12.50;99.90
27413;DHT22;14871;52.702;5.230;2023-04-24T12:05:26;12.50;99.90
27413;DHT22;14871;52.702;5.230;2023-04-24T12:07:53;12.60;99.90
27413;DHT22;14871;52.702;5.230;2023-04-24T12:10:24;12.70;99.90
27413;DHT22;14871;52.702;5.230;2023-04-24T12:12:51;12.50;99.90
27413;DHT22;14871;52.702;5.230;2023-04-24T12:15:18;12.70;99.90
27413;DHT22;14871;52.702;5.230;2023-04-24T12:17:44;12.80;99.90
27413;DHT22;14871;52.702;5.230;2023-04-24T12:20:13;12.60;99.90
27413;DHT22;14871;52.702;5.230;2023-04-24T12:25:25;12.40;99.90
27413;DHT22;14871;52.702;5.230;2023-04-24T12:28:17;12.60;99.90
27413;DHT22;14871;52.702;5.230;2023-04-24T12:30:49;12.60;99.90
27413;DHT22;14871;52.702;5.230;2023-04-24T12:33:19;12.70;99.90
27413;DHT22;14871;52.702;5.230;2023-04-24T12:35:45;12.90;99.90
27413;DHT22;14871;52.702;5.230;2023-04-24T12:38:15;13.10;99.90
27413;DHT22;14871;52.702;5.230;2023-04-24T12:40:42;13.00;99.90
27413;DHT22;14871;52.702;5.230;2023-04-24T12:43:19;12.90;99.90
27413;DHT22;14871;52.702;5.230;2023-04-24T12:45:45;13.00;99.90
27413;DHT22;14871;52.702;5.230;2023-04-24T12:48:11;13.30;99.90
27413;DHT22;14871;52.702;5.230;2023-04-24T12:50:38;13.30;99.90
27413;DHT22;14871;52.702;5.230;2023-04-24T12:53:03;13.30;99.90
27413;DHT22;14871;52.702;5.230;2023-04-24T12:55:29;13.50;99.90
27413;DHT22;14871;52.702;5.230;2023-04-24T12:57:55;13.60;99.90
27413;DHT22;14871;52.702;5.230;2023-04-24T13:00:21;13.50;99.90
27413;DHT22;14871;52.702;5.230;2023-04-24T13:02:47;13.20;99.90
27413;DHT22;14871;52.702;5.230;2023-04-24T13:05:13;13.00;99.90
27413;DHT22;14871;52.702;5.230;2023-04-24T13:07:39;12.80;99.90
27413;DHT22;14871;52.702;5.230;2023-04-24T13:10:06;12.70;99.90
27413;DHT22;14871;52.702;5.230;2023-04-24T13:12:32;12.80;99.90
27413;DHT22;14871;52.702;5.230;2023-04-24T13:14:58;12.60;99.90
27413;DHT22;14871;52.702;5.230;2023-04-24T13:17:24;12.60;99.90
27413;DHT22;14871;52.702;5.230;2023-04-24T13:19:51;12.50;99.90
27413;DHT22;14871;52.702;5.230;2023-04-24T13:22:17;12.60;99.90
27413;DHT22;14871;52.702;5.230;2023-04-24T13:24:47;12.60;99.90
27413;DHT22;14871;52.702;5.230;2023-04-24T13:27:14;12.80;99.90
27413;DHT22;14871;52.702;5.230;2023-04-24T13:29:40;12.80;99.90
27413;DHT22;14871;52.702;5.230;2023-04-24T13:32:06;13.00;99.90
27413;DHT22;14871;52.702;5.230;2023-04-24T13:34:32;12.90;99.90
27413;DHT22;14871;52.702;5.230;2023-04-24T13:36:58;12.70;99.90
27413;DHT22;14871;52.702;5.230;2023-04-24T13:39:24;12.90;99.90
27413;DHT22;14871;52.702;5.230;2023-04-24T13:41:51;13.00;99.90
27413;DHT22;14871;52.702;5.230;2023-04-24T13:44:18;13.00;99.90
27413;DHT22;14871;52.702;5.230;2023-04-24T13:46:46;12.90;99.90
27413;DHT22;14871;52.702;5.230;2023-04-24T13:49:13;12.70;99.90
27413;DHT22;14871;52.702;5.230;2023-04-24T13:51:40;12.60;99.90
27413;DHT22;14871;52.702;5.230;2023-04-24T13:54:07;12.80;99.90
27413;DHT22;14871;52.702;5.230;2023-04-24T13:56:33;12.60;99.90
27413;DHT22;14871;52.702;5.230;2023-04-24T13:58:59;12.70;99.90
27413;DHT22;14871;52.702;5.230;2023-04-24T14:01:26;12.70;99.90
27413;DHT22;14871;52.702;5.230;2023-04-24T14:03:52;12.80;99.90
27413;DHT22;14871;52.702;5.230;2023-04-24T14:06:19;13.30;99.90
27413;DHT22;14871;52.702;5.230;2023-04-24T14:08:46;13.70;99.90
27413;DHT22;14871;52.702;5.230;2023-04-24T14:11:12;13.90;99.90
27413;DHT22;14871;52.702;5.230;2023-04-24T14:13:41;14.20;99.90
27413;DHT22;14871;52.702;5.230;2023-04-24T14:16:07;13.90;99.90
27413;DHT22;14871;52.702;5.230;2023-04-24T14:18:33;13.90;99.90
27413;DHT22;14871;52.702;5.230;2023-04-24T14:21:00;13.70;99.90
27413;DHT22;14871;52.702;5.230;2023-04-24T14:23:27;13.60;99.90
27413;DHT22;14871;52.702;5.230;2023-04-24T14:25:52;13.60;99.90
27413;DHT22;14871;52.702;5.230;2023-04-24T14:28:22;13.60;99.90
27413;DHT22;14871;52.702;5.230;2023-04-24T14:30:48;13.30;99.90
27413;DHT22;14871;52.702;5.230;2023-04-24T14:33:14;13.40;99.90
27413;DHT22;14871;52.702;5.230;2023-04-24T14:35:41;13.60;99.90
27413;DHT22;14871;52.702;5.230;2023-04-24T14:38:10;13.50;99.90
27413;DHT22;14871;52.702;5.230;2023-04-24T14:40:37;13.40;99.90
27413;DHT22;14871;52.702;5.230;2023-04-24T14:43:03;13.50;99.90
27413;DHT22;14871;52.702;5.230;2023-04-24T14:45:30;13.40;99.90
27413;DHT22;14871;52.702;5.230;2023-04-24T14:47:57;13.50;99.90
27413;DHT22;14871;52.702;5.230;2023-04-24T14:50:23;13.50;99.90
27413;DHT22;14871;52.702;5.230;2023-04-24T14:52:49;13.50;99.90
27413;DHT22;14871;52.702;5.230;2023-04-24T14:55:16;13.50;99.90
27413;DHT22;14871;52.702;5.230;2023-04-24T14:57:41;13.50;99.90
27413;DHT22;14871;52.702;5.230;2023-04-24T15:00:08;13.30;99.90
27413;DHT22;14871;52.702;5.230;2023-04-24T15:02:36;13.30;99.90
27413;DHT22;14871;52.702;5.230;2023-04-24T15:05:08;13.30;99.90
27413;DHT22;14871;52.702;5.230;2023-04-24T15:07:34;13.60;99.90
27413;DHT22;14871;52.702;5.230;2023-04-24T15:10:02;13.30;99.90
27413;DHT22;14871;52.702;5.230;2023-04-24T15:12:28;13.10;99.90
27413;DHT22;14871;52.702;5.230;2023-04-24T15:14:57;13.00;99.90
27413;DHT22;14871;52.702;5.230;2023-04-24T15:17:23;12.90;99.90
27413;DHT22;14871;52.702;5.230;2023-04-24T15:19:49;13.00;99.90
27413;DHT22;14871;52.702;5.230;2023-04-24T15:22:15;12.90;99.90
27413;DHT22;14871;52.702;5.230;2023-04-24T15:24:41;12.70;99.90
27413;DHT22;14871;52.702;5.230;2023-04-24T15:27:10;12.60;99.90
27413;DHT22;14871;52.702;5.230;2023-04-24T15:29:37;12.60;99.90
27413;DHT22;14871;52.702;5.230;2023-04-24T15:32:03;12.60;99.90
27413;DHT22;14871;52.702;5.230;2023-04-24T15:34:28;12.70;99.90
27413;DHT22;14871;52.702;5.230;2023-04-24T15:36:55;12.70;99.90
27413;DHT22;14871;52.702;5.230;2023-04-24T15:39:26;12.50;99.90